Aérodrome :
LOGIN :

S'inscrire | Disclaimer

   EN    FR    IT 

 










Légende :    VFR   VFR Marginal   IFR   IFR Intensif   IFR Très Intensif
Visi : 
Plafond : 
>= 8 km
>= 3000ft
5 à 8 km
1000 à 3000 ft
1500m à 5 km
500 à 1000 ft
800 à 1500m
200 à 500 ft
< 800m
< 200 ft
Symboles :   Orages  Brouillard  Fortes neiges  Fortes précipitations  Vent > 20 kt
SIGMETs :   Divers  Orages  Givrage  Turbulence  Onde Orograph.  Cendres Volcan.






- Altitude de l'aérodrome : 1302 ft
- Code IATA : GNB


LFLS - Grenoble / St. Geoirs

DERNIER METAR :
  • 190500Z AUTO VRB03KT 9999 FEW018 BKN033 BKN200 02/M00 Q1014 TEMPO 3000 BR BKN008

METARs EXPIRÉS :
  • 190430Z AUTO 01006KT 330V050 9999 BKN034 BKN180 BKN200 03/00 Q1014 TEMPO 3000 BR BKN008
  • 190400Z AUTO 36007KT 9999 SCT030 BKN035 BKN200 02/M00 Q1014 TEMPO 3000 BR BKN008
  • 190330Z AUTO 03004KT 9999 BKN033 BKN040 02/M00 Q1014 TEMPO 3000 BR BKN008
  • 190300Z AUTO 08003KT 020V100 9999 FEW031 BKN040 BKN150 01/M01 Q1014 TEMPO 3000 BR BKN008
  • 190230Z AUTO 02004KT 320V080 9999 FEW018 SCT040 BKN170 02/00 Q1014 TEMPO 3000 BR BKN008

TAF TAF LFLS
Valide du 19 à 03h jusqu'au 20 à 03h UTC


190200Z 1903/2003 36008KT 9999 SCT020
BECMG 1903/1906 BKN014
PROB40
TEMPO 1904/1909 3000 BR BKN008
PROB40
TEMPO 1916/1922 1500 BCFG BKN008
ATIS : +33 4 76 65 55 89



MET'MAP, la Météo Aéronautique d'un coup d'oeil ! - Copyright ORBIFLY Décembre 2007 - Disclaimer

ORBIFLY MET'MAP TEAM :

Programmation & Développement : Alexandra Zaïnal
Conception & Développement : Baudouin d'Aumeries
Co-Programmation & Développement : Marc-Olivier Méhu
Soutien technique & logistique : Manuel Goepfert

Contact : metmap@orbifly.com




SOURCES & CREDITS :

   NOAA